Time;durP1;ratioP1;P1;durP2;ratioP2;P2;SDS_P1;SDS_P2;PMS_P1;PMS_P2;Temp;Humidity;BMP_temperature;BMP_pressure;BME280_temperature;BME280_humidity;BME280_pressure;Samples;Min_cycle;Max_cycle;Signal;HPM_P1;HPM_P2
2021/09/08 00:01:39;;;;;;;34.30;25.30;;;17.20;99.90;;;;;;5038480;28;20460;-70
2021/09/08 00:04:08;;;;;;;38.40;24.20;;;17.20;99.90;;;;;;5036645;28;20514;-69
2021/09/08 00:06:35;;;;;;;30.60;23.00;;;17.20;99.90;;;;;;5039175;28;20548;-71
2021/09/08 00:09:02;;;;;;;33.40;24.57;;;17.30;99.90;;;;;;5039068;28;20472;-70
2021/09/08 00:11:28;;;;;;;29.90;23.20;;;17.30;99.90;;;;;;5036996;28;20481;-71
2021/09/08 00:13:56;;;;;;;28.67;22.97;;;17.20;99.90;;;;;;5051028;28;20455;-72
2021/09/08 00:16:24;;;;;;;27.63;22.07;;;17.10;99.90;;;;;;5049152;28;20519;-70
2021/09/08 00:18:51;;;;;;;28.13;23.73;;;17.10;99.90;;;;;;5031431;28;20476;-71
2021/09/08 00:21:19;;;;;;;25.93;22.50;;;17.10;99.90;;;;;;5044183;28;20776;-70
2021/09/08 00:23:46;;;;;;;30.73;23.10;;;17.10;99.90;;;;;;5046336;28;20488;-71
2021/09/08 00:26:14;;;;;;;26.70;23.90;;;17.10;99.90;;;;;;5041163;28;20818;-72
2021/09/08 00:28:41;;;;;;;28.60;23.03;;;17.00;99.90;;;;;;5035037;28;20879;-70
2021/09/08 00:31:09;;;;;;;25.83;23.30;;;17.00;99.90;;;;;;5038705;28;20475;-70
2021/09/08 00:33:36;;;;;;;27.53;24.07;;;17.00;99.90;;;;;;5034619;28;20481;-70
2021/09/08 00:36:03;;;;;;;25.23;22.73;;;17.00;99.90;;;;;;5040929;28;20460;-72
2021/09/08 00:38:31;;;;;;;31.13;23.43;;;16.90;99.90;;;;;;5043810;28;20855;-72
2021/09/08 00:40:58;;;;;;;33.87;23.70;;;16.90;99.90;;;;;;5052023;28;20803;-70
2021/09/08 00:43:25;;;;;;;36.60;23.20;;;16.90;99.90;;;;;;5040428;28;20459;-70
2021/09/08 00:45:53;;;;;;;28.70;24.10;;;16.80;99.90;;;;;;5038579;28;20865;-70
2021/09/08 00:48:20;;;;;;;27.30;22.63;;;16.80;99.90;;;;;;5039311;28;20511;-72
2021/09/08 00:50:48;;;;;;;33.03;24.27;;;16.90;99.90;;;;;;5034970;28;20467;-72
2021/09/08 00:53:17;;;;;;;32.13;23.60;;;16.90;99.90;;;;;;5036666;28;20820;-71
2021/09/08 00:55:46;;;;;;;26.07;23.30;;;16.80;99.90;;;;;;5045485;28;20460;-71
2021/09/08 00:58:14;;;;;;;26.17;23.67;;;16.80;99.90;;;;;;5052298;28;20472;-70
2021/09/08 01:00:42;;;;;;;28.00;25.13;;;16.70;99.90;;;;;;5040504;28;21090;-71
2021/09/08 01:03:09;;;;;;;26.07;23.20;;;16.70;99.90;;;;;;5037151;28;20784;-71
2021/09/08 01:05:36;;;;;;;26.30;23.77;;;16.60;99.90;;;;;;5039238;28;20480;-71
2021/09/08 01:08:04;;;;;;;25.90;23.23;;;16.70;99.90;;;;;;5041720;28;20455;-70
2021/09/08 01:10:31;;;;;;;25.70;22.63;;;16.70;99.90;;;;;;5054154;28;20472;-70
2021/09/08 01:13:00;;;;;;;25.63;22.73;;;16.60;99.90;;;;;;5041832;28;20483;-71
2021/09/08 01:15:27;;;;;;;29.27;23.37;;;16.60;99.90;;;;;;5039750;28;20478;-70
2021/09/08 01:17:54;;;;;;;28.97;25.93;;;16.60;99.90;;;;;;5039696;28;20463;-70
2021/09/08 01:20:21;;;;;;;29.17;23.10;;;16.50;99.90;;;;;;5043071;28;20935;-70
2021/09/08 01:22:50;;;;;;;25.70;23.30;;;16.50;99.90;;;;;;5043720;28;20461;-70
2021/09/08 01:25:20;;;;;;;25.90;23.40;;;16.40;99.90;;;;;;5053353;28;20912;-70
2021/09/08 01:27:47;;;;;;;30.93;24.37;;;16.40;99.90;;;;;;5039613;28;20460;-70
2021/09/08 01:30:17;;;;;;;25.40;23.30;;;16.40;99.90;;;;;;5040566;28;20819;-71
2021/09/08 01:32:44;;;;;;;25.27;22.73;;;16.30;99.90;;;;;;5042212;28;20499;-71
2021/09/08 01:35:11;;;;;;;30.30;22.93;;;16.30;99.90;;;;;;5045335;28;20512;-71
2021/09/08 01:37:39;;;;;;;25.87;23.60;;;16.30;99.90;;;;;;5042372;28;20456;-71
2021/09/08 01:40:09;;;;;;;27.00;24.20;;;16.30;99.90;;;;;;5044907;28;20487;-71
2021/09/08 01:42:36;;;;;;;27.73;24.93;;;16.30;99.90;;;;;;5041354;28;20490;-71
2021/09/08 01:45:04;;;;;;;24.77;22.60;;;16.30;99.90;;;;;;5039106;28;20470;-70
2021/09/08 01:47:31;;;;;;;25.50;22.93;;;16.30;99.90;;;;;;5034352;28;20806;-72
2021/09/08 01:49:58;;;;;;;26.23;23.43;;;16.20;99.90;;;;;;5044042;28;20821;-71
2021/09/08 01:52:25;;;;;;;26.53;23.87;;;16.30;99.90;;;;;;5054757;28;21050;-72
2021/09/08 01:54:52;;;;;;;25.43;23.10;;;16.20;99.90;;;;;;5055104;28;20564;-71
2021/09/08 01:57:21;;;;;;;31.83;25.07;;;16.30;99.90;;;;;;5038929;28;20454;-71
2021/09/08 01:59:48;;;;;;;29.73;24.93;;;16.20;99.90;;;;;;5038661;28;20452;-72
2021/09/08 02:02:15;;;;;;;26.53;24.07;;;16.20;99.90;;;;;;5035862;28;20465;-73
2021/09/08 02:04:42;;;;;;;24.67;22.30;;;16.20;99.90;;;;;;5039220;28;21026;-71
2021/09/08 02:07:09;;;;;;;26.17;23.37;;;16.20;99.90;;;;;;5047706;28;20495;-72
2021/09/08 02:09:36;;;;;;;26.17;23.27;;;16.20;99.90;;;;;;5045297;28;20468;-71
2021/09/08 02:12:03;;;;;;;29.00;26.17;;;16.20;99.90;;;;;;5039596;28;20527;-71
2021/09/08 02:14:31;;;;;;;25.70;23.37;;;16.20;99.90;;;;;;5039440;28;20460;-73
2021/09/08 02:16:58;;;;;;;27.43;23.13;;;16.30;99.90;;;;;;5042013;28;20461;-71
2021/09/08 02:19:25;;;;;;;27.13;24.73;;;16.30;99.90;;;;;;5041586;28;20921;-72
2021/09/08 02:21:52;;;;;;;25.37;22.70;;;16.30;99.90;;;;;;5031597;28;20929;-71
2021/09/08 02:24:19;;;;;;;24.60;22.37;;;16.30;99.90;;;;;;5049252;28;20486;-72
2021/09/08 02:26:47;;;;;;;24.70;22.47;;;16.30;99.90;;;;;;5050702;28;20466;-71
2021/09/08 02:29:14;;;;;;;23.83;21.60;;;16.30;99.90;;;;;;5041029;28;20831;-71
2021/09/08 02:31:42;;;;;;;27.30;24.70;;;16.30;99.90;;;;;;5043744;28;20509;-71
2021/09/08 02:34:09;;;;;;;24.40;22.27;;;16.30;99.90;;;;;;5032955;28;20492;-71
2021/09/08 02:36:36;;;;;;;26.07;23.47;;;16.20;99.90;;;;;;5043668;28;20461;-70
2021/09/08 02:39:06;;;;;;;25.83;22.13;;;16.20;99.90;;;;;;5036544;28;20974;-72
2021/09/08 02:41:34;;;;;;;26.43;23.60;;;16.10;99.90;;;;;;5035409;28;20809;-71
2021/09/08 02:44:01;;;;;;;25.40;23.07;;;16.00;99.90;;;;;;5034867;28;20460;-70
2021/09/08 02:46:29;;;;;;;28.57;25.10;;;16.00;99.90;;;;;;5039075;28;20935;-70
2021/09/08 02:48:57;;;;;;;26.90;24.40;;;15.90;99.90;;;;;;5041866;28;21308;-72
2021/09/08 02:51:25;;;;;;;26.80;24.33;;;15.80;99.90;;;;;;5032991;28;20551;-71
2021/09/08 02:53:52;;;;;;;26.53;24.10;;;15.70;99.90;;;;;;5039806;28;20495;-71
2021/09/08 02:56:19;;;;;;;26.40;24.13;;;15.60;99.90;;;;;;5040386;28;20548;-72
2021/09/08 02:58:47;;;;;;;27.07;24.80;;;15.60;99.90;;;;;;5040715;28;20470;-71
2021/09/08 03:01:13;;;;;;;27.93;25.00;;;15.50;99.90;;;;;;5042109;28;20464;-72
2021/09/08 03:03:41;;;;;;;28.97;24.60;;;15.50;99.90;;;;;;5044404;28;20832;-72
2021/09/08 03:06:10;;;;;;;27.87;25.30;;;15.40;99.90;;;;;;5038951;28;20459;-71
2021/09/08 03:08:37;;;;;;;28.70;25.90;;;15.30;99.90;;;;;;5043482;28;20460;-71
2021/09/08 03:11:04;;;;;;;28.07;25.57;;;15.20;99.90;;;;;;5039798;28;20456;-72
2021/09/08 03:13:31;;;;;;;27.50;25.13;;;15.20;99.90;;;;;;5041155;28;20487;-71
2021/09/08 03:15:58;;;;;;;29.00;25.83;;;15.20;99.90;;;;;;5040163;28;20456;-72
2021/09/08 03:18:25;;;;;;;26.07;23.67;;;15.20;99.90;;;;;;5038242;28;20852;-70
2021/09/08 03:20:52;;;;;;;27.17;24.23;;;15.10;99.90;;;;;;5038985;28;20468;-71
2021/09/08 03:23:20;;;;;;;26.93;24.17;;;15.10;99.90;;;;;;5046797;28;21037;-71
2021/09/08 03:25:48;;;;;;;28.43;25.63;;;15.10;99.90;;;;;;5043582;28;21068;-71
2021/09/08 03:28:15;;;;;;;28.27;25.30;;;15.10;99.90;;;;;;5037377;28;20472;-71
2021/09/08 03:30:42;;;;;;;28.30;25.50;;;15.10;99.90;;;;;;5036154;28;20647;-71
2021/09/08 03:33:09;;;;;;;27.97;25.33;;;15.20;99.90;;;;;;5038831;28;20853;-71
2021/09/08 03:35:36;;;;;;;27.30;23.60;;;15.20;99.90;;;;;;5031815;28;20470;-71
2021/09/08 03:38:03;;;;;;;27.37;24.83;;;15.20;99.90;;;;;;5056697;28;20462;-71
2021/09/08 03:40:32;;;;;;;27.37;24.50;;;15.20;99.90;;;;;;5040544;28;20460;-72
2021/09/08 03:42:59;;;;;;;26.37;23.90;;;15.20;99.90;;;;;;5035228;28;20460;-71
2021/09/08 03:45:25;;;;;;;26.80;23.57;;;15.30;99.90;;;;;;5038379;28;20966;-72
2021/09/08 03:47:52;;;;;;;27.43;24.77;;;15.40;99.90;;;;;;5029280;28;20469;-71
2021/09/08 03:50:20;;;;;;;27.13;24.30;;;15.40;99.90;;;;;;5040711;28;20457;-72
2021/09/08 03:52:47;;;;;;;26.37;23.57;;;15.40;99.90;;;;;;5042896;28;20537;-71
2021/09/08 03:55:14;;;;;;;27.23;24.43;;;15.40;99.90;;;;;;5051550;28;20455;-71
2021/09/08 03:57:42;;;;;;;28.70;25.70;;;15.40;99.90;;;;;;5040080;28;20818;-72
2021/09/08 04:00:10;;;;;;;28.57;25.67;;;15.40;99.90;;;;;;5037358;28;20963;-72
2021/09/08 04:02:38;;;;;;;26.17;23.77;;;15.40;99.90;;;;;;5036372;28;20482;-71
2021/09/08 04:05:06;;;;;;;28.37;25.40;;;15.40;99.90;;;;;;5038029;28;20805;-71
2021/09/08 04:07:34;;;;;;;28.03;24.33;;;15.40;99.90;;;;;;5037694;28;20472;-71
2021/09/08 04:10:00;;;;;;;27.83;23.80;;;15.40;99.90;;;;;;5041064;28;20968;-71
2021/09/08 04:12:27;;;;;;;25.20;22.77;;;15.50;99.90;;;;;;5044343;28;20483;-71
2021/09/08 04:14:56;;;;;;;26.17;23.40;;;15.60;99.90;;;;;;5032145;28;20456;-71
2021/09/08 04:17:24;;;;;;;27.90;24.87;;;15.60;99.90;;;;;;5046892;28;20480;-71
2021/09/08 04:19:51;;;;;;;26.87;23.43;;;15.50;99.90;;;;;;5031918;28;20630;-71
2021/09/08 04:22:18;;;;;;;28.87;24.87;;;15.60;99.90;;;;;;5041811;28;20451;-71
2021/09/08 04:24:45;;;;;;;26.60;23.73;;;15.60;99.90;;;;;;5044091;28;20484;-71
2021/09/08 04:27:12;;;;;;;38.37;23.90;;;15.70;99.90;;;;;;5042155;28;20463;-73
2021/09/08 04:29:39;;;;;;;25.97;23.17;;;15.80;99.90;;;;;;5035010;28;20467;-71
2021/09/08 04:32:08;;;;;;;27.27;24.37;;;15.70;99.90;;;;;;5042821;28;20583;-73
2021/09/08 04:34:35;;;;;;;28.83;24.20;;;15.60;99.90;;;;;;5039528;28;21020;-71
2021/09/08 04:37:02;;;;;;;43.10;24.70;;;15.70;99.90;;;;;;5041005;28;20477;-71
2021/09/08 04:39:29;;;;;;;25.47;22.90;;;15.70;99.90;;;;;;5042364;28;20461;-72
2021/09/08 04:41:57;;;;;;;34.83;24.97;;;15.60;99.90;;;;;;5047343;28;20470;-71
2021/09/08 04:44:24;;;;;;;28.47;25.60;;;15.50;99.90;;;;;;5048964;28;20458;-72
2021/09/08 04:46:51;;;;;;;40.43;26.77;;;15.40;99.90;;;;;;5040536;28;20539;-71
2021/09/08 04:49:19;;;;;;;33.10;24.50;;;15.30;99.90;;;;;;5037106;28;20466;-71
2021/09/08 04:51:47;;;;;;;26.40;23.80;;;15.30;99.90;;;;;;5044380;28;20468;-71
2021/09/08 04:54:14;;;;;;;26.47;23.80;;;15.30;99.90;;;;;;5049956;28;20494;-70
2021/09/08 04:56:41;;;;;;;31.07;24.90;;;15.40;99.90;;;;;;5042611;28;20471;-70
2021/09/08 04:59:08;;;;;;;29.60;23.83;;;15.50;99.90;;;;;;5043504;28;20498;-71
2021/09/08 05:01:35;;;;;;;27.97;25.07;;;15.50;99.90;;;;;;5046362;28;20461;-70
2021/09/08 05:04:02;;;;;;;29.63;23.83;;;15.40;99.90;;;;;;5038739;28;20839;-71
2021/09/08 05:06:31;;;;;;;25.93;23.23;;;15.50;99.90;;;;;;5036495;28;20932;-71
2021/09/08 05:08:58;;;;;;;31.63;23.10;;;15.50;99.90;;;;;;5033785;28;20464;-71
2021/09/08 05:11:25;;;;;;;49.57;25.17;;;15.50;99.90;;;;;;5040737;28;20459;-72
2021/09/08 05:13:52;;;;;;;27.93;24.80;;;15.40;99.90;;;;;;5040234;28;20487;-72
2021/09/08 05:16:19;;;;;;;28.60;24.03;;;15.40;99.90;;;;;;5042549;28;20471;-71
2021/09/08 05:18:46;;;;;;;30.67;25.53;;;15.40;99.90;;;;;;5045733;28;20465;-72
2021/09/08 05:21:13;;;;;;;27.20;24.13;;;15.40;99.90;;;;;;5037741;28;20464;-70
2021/09/08 05:23:42;;;;;;;35.60;24.97;;;15.40;99.90;;;;;;5037353;28;20812;-72
2021/09/08 05:26:08;;;;;;;41.10;26.83;;;15.30;99.90;;;;;;5040811;28;20534;-72
2021/09/08 05:28:35;;;;;;;31.13;25.43;;;15.30;99.90;;;;;;5038998;28;20460;-71
2021/09/08 05:31:02;;;;;;;29.93;26.57;;;15.40;99.90;;;;;;5040464;28;20467;-71
2021/09/08 05:33:31;;;;;;;31.33;26.10;;;15.40;99.90;;;;;;5037553;28;20484;-71
2021/09/08 05:35:59;;;;;;;32.87;25.63;;;15.30;99.90;;;;;;5037857;28;20813;-71
2021/09/08 05:38:26;;;;;;;32.93;27.60;;;15.30;99.90;;;;;;5038027;28;20658;-71
2021/09/08 05:40:54;;;;;;;41.33;25.20;;;15.40;99.90;;;;;;5037794;28;20457;-71
2021/09/08 05:43:21;;;;;;;35.50;27.93;;;15.40;99.90;;;;;;5048710;28;20478;-71
2021/09/08 05:45:48;;;;;;;28.70;25.67;;;15.40;99.90;;;;;;5037108;28;20471;-71
2021/09/08 05:48:15;;;;;;;28.63;25.60;;;15.40;99.90;;;;;;5041551;28;20517;-73
2021/09/08 05:50:42;;;;;;;29.07;26.07;;;15.40;99.90;;;;;;5034166;28;20449;-71
2021/09/08 05:53:09;;;;;;;28.50;24.67;;;15.40;99.90;;;;;;5039437;28;20479;-71
2021/09/08 05:55:36;;;;;;;30.00;26.73;;;15.40;99.90;;;;;;5039193;28;20456;-72
2021/09/08 05:58:05;;;;;;;29.10;26.13;;;15.40;99.90;;;;;;5035728;28;20468;-72
2021/09/08 06:00:32;;;;;;;29.13;26.50;;;15.40;99.90;;;;;;5038436;28;20947;-70
2021/09/08 06:02:59;;;;;;;27.47;25.07;;;15.50;99.90;;;;;;5031448;28;21382;-71
2021/09/08 06:05:26;;;;;;;37.80;26.23;;;15.50;99.90;;;;;;5036358;28;20494;-71
2021/09/08 06:07:53;;;;;;;28.43;25.87;;;15.50;99.90;;;;;;5043065;28;20593;-71
2021/09/08 06:10:21;;;;;;;28.40;24.83;;;15.60;99.90;;;;;;5034545;28;20510;-72
2021/09/08 06:12:48;;;;;;;28.17;25.33;;;15.70;99.90;;;;;;5032132;28;20459;-71
2021/09/08 06:15:20;;;;;;;33.93;25.80;;;15.80;99.90;;;;;;5037685;28;20468;-71
2021/09/08 06:17:47;;;;;;;29.40;25.67;;;15.90;99.90;;;;;;5035997;28;20462;-70
2021/09/08 06:20:14;;;;;;;34.73;25.37;;;16.00;99.90;;;;;;5036291;28;20456;-72
2021/09/08 06:22:41;;;;;;;29.30;25.50;;;16.10;99.90;;;;;;5033655;28;20947;-72
2021/09/08 06:25:09;;;;;;;31.50;24.60;;;16.30;99.90;;;;;;5036025;28;20460;-71
2021/09/08 06:27:37;;;;;;;26.50;23.10;;;16.40;99.90;;;;;;5040933;28;20464;-70
2021/09/08 06:30:05;;;;;;;27.37;24.53;;;16.50;99.90;;;;;;5036862;28;20897;-70
2021/09/08 06:32:34;;;;;;;26.37;23.87;;;16.70;99.90;;;;;;5048647;28;20507;-72
2021/09/08 06:35:01;;;;;;;27.20;24.70;;;16.90;99.90;;;;;;5035393;28;20554;-71
2021/09/08 06:37:28;;;;;;;40.60;24.43;;;17.10;99.90;;;;;;5040517;28;20456;-71
2021/09/08 06:39:55;;;;;;;30.73;23.53;;;17.20;99.90;;;;;;5038393;28;20456;-71
2021/09/08 06:42:22;;;;;;;30.53;24.40;;;17.40;99.90;;;;;;5038702;28;20471;-71
2021/09/08 06:44:53;;;;;;;29.50;25.23;;;17.50;99.90;;;;;;5048284;28;20452;-70
2021/09/08 06:47:20;;;;;;;27.23;24.30;;;17.50;99.90;;;;;;5024644;28;20475;-71
2021/09/08 06:49:49;;;;;;;30.57;24.17;;;17.70;99.90;;;;;;5034199;28;20826;-72
2021/09/08 06:52:16;;;;;;;37.60;25.20;;;17.80;99.90;;;;;;5036646;28;20464;-70
2021/09/08 06:54:43;;;;;;;33.70;25.13;;;17.90;99.90;;;;;;5034686;28;20498;-71
2021/09/08 06:57:12;;;;;;;31.17;23.67;;;18.00;99.90;;;;;;5034928;28;21400;-70
2021/09/08 06:59:39;;;;;;;27.60;23.30;;;18.10;99.90;;;;;;5038755;28;21007;-70
2021/09/08 07:02:06;;;;;;;35.93;24.07;;;18.10;99.90;;;;;;5040598;28;21154;-72
2021/09/08 07:04:34;;;;;;;29.10;23.83;;;18.20;99.90;;;;;;5033743;28;20476;-70
2021/09/08 07:07:03;;;;;;;29.03;24.17;;;18.30;99.90;;;;;;5033790;28;20523;-70
2021/09/08 07:09:30;;;;;;;27.77;23.30;;;18.40;99.90;;;;;;5034756;28;20456;-71
2021/09/08 07:11:57;;;;;;;27.17;23.67;;;18.50;99.90;;;;;;5031953;28;20455;-72
2021/09/08 07:14:24;;;;;;;39.73;24.30;;;18.60;99.90;;;;;;5035258;28;20494;-71
2021/09/08 07:16:52;;;;;;;30.20;23.83;;;18.70;99.90;;;;;;5038501;28;20555;-71
2021/09/08 07:19:19;;;;;;;41.03;22.87;;;18.80;99.90;;;;;;5051278;28;20565;-71
2021/09/08 07:21:46;;;;;;;34.53;24.07;;;19.00;99.90;;;;;;5033126;28;20464;-71
2021/09/08 07:24:15;;;;;;;36.27;23.43;;;19.20;99.90;;;;;;5028498;28;20969;-71
2021/09/08 07:26:42;;;;;;;25.33;22.07;;;19.40;99.90;;;;;;5039972;28;20459;-72
2021/09/08 07:29:08;;;;;;;30.70;24.50;;;19.50;99.90;;;;;;5033781;28;20483;-71
2021/09/08 07:31:36;;;;;;;36.10;22.70;;;19.50;99.90;;;;;;5037197;28;20456;-71
2021/09/08 07:34:03;;;;;;;41.53;23.40;;;19.60;99.90;;;;;;5031568;28;20617;-71
2021/09/08 07:36:29;;;;;;;42.10;23.43;;;19.70;99.90;;;;;;5035841;28;20563;-71
2021/09/08 07:38:56;;;;;;;28.93;23.23;;;19.90;99.90;;;;;;5037209;28;20459;-71
2021/09/08 07:41:24;;;;;;;38.30;24.03;;;20.10;99.90;;;;;;5038994;28;20486;-70
2021/09/08 07:43:51;;;;;;;33.80;22.60;;;20.10;99.90;;;;;;5038653;28;20469;-72
2021/09/08 07:46:18;;;;;;;24.93;22.27;;;20.20;99.90;;;;;;5033129;28;20456;-71
2021/09/08 07:48:45;;;;;;;35.47;23.80;;;20.40;99.90;;;;;;5037193;28;20994;-70
2021/09/08 07:51:12;;;;;;;30.40;23.50;;;20.40;99.90;;;;;;5036714;28;20467;-71
2021/09/08 07:53:39;;;;;;;28.60;22.23;;;20.50;99.90;;;;;;5034246;28;20488;-70
2021/09/08 07:56:06;;;;;;;34.13;24.07;;;20.50;99.90;;;;;;5040630;28;20471;-71
2021/09/08 07:58:34;;;;;;;34.07;23.77;;;20.60;99.90;;;;;;5032205;28;20475;-72
2021/09/08 08:01:01;;;;;;;25.27;22.40;;;20.70;99.90;;;;;;5034053;28;20463;-70
2021/09/08 08:03:28;;;;;;;33.80;22.30;;;20.90;99.90;;;;;;5036733;28;20459;-72
2021/09/08 08:05:55;;;;;;;25.50;23.23;;;21.00;99.90;;;;;;5032582;28;20483;-73
2021/09/08 08:08:22;;;;;;;29.33;22.63;;;21.10;99.90;;;;;;5037683;28;20471;-73
2021/09/08 08:10:49;;;;;;;27.93;22.07;;;21.30;99.90;;;;;;5038435;28;21025;-71
2021/09/08 08:13:16;;;;;;;34.67;23.10;;;21.30;99.90;;;;;;5033167;28;20459;-72
2021/09/08 08:15:44;;;;;;;25.70;21.87;;;21.50;99.90;;;;;;5036822;28;20495;-72
2021/09/08 08:18:13;;;;;;;30.87;22.60;;;21.60;99.90;;;;;;5036621;28;20461;-71
2021/09/08 08:20:40;;;;;;;25.90;22.70;;;21.70;99.90;;;;;;5036102;28;20488;-70
2021/09/08 08:23:07;;;;;;;27.33;23.70;;;21.70;99.90;;;;;;5033393;28;20468;-72
2021/09/08 08:25:34;;;;;;;26.00;23.30;;;21.80;99.90;;;;;;5037115;28;20457;-74
2021/09/08 08:28:03;;;;;;;25.70;23.40;;;22.00;99.90;;;;;;5037836;28;20471;-71
2021/09/08 08:30:31;;;;;;;24.37;21.60;;;22.10;99.90;;;;;;5031786;28;20469;-71
2021/09/08 08:32:59;;;;;;;24.17;22.07;;;22.10;99.90;;;;;;5034420;28;20883;-71
2021/09/08 08:35:27;;;;;;;24.13;21.70;;;22.30;99.90;;;;;;5039575;28;20492;-71
2021/09/08 08:37:53;;;;;;;25.27;22.20;;;22.40;99.90;;;;;;5040450;28;20464;-70
2021/09/08 08:40:21;;;;;;;24.80;22.40;;;22.40;99.90;;;;;;5034462;28;20473;-71
2021/09/08 08:42:49;;;;;;;28.33;21.87;;;22.50;99.90;;;;;;5033815;28;20460;-71
2021/09/08 08:45:16;;;;;;;24.70;22.17;;;22.60;99.90;;;;;;5037759;28;20460;-72
2021/09/08 08:47:44;;;;;;;23.37;21.03;;;22.60;99.90;;;;;;5041087;28;20474;-71
2021/09/08 08:50:14;;;;;;;25.20;22.47;;;22.90;99.90;;;;;;5039981;28;20522;-71
2021/09/08 08:52:41;;;;;;;24.37;22.03;;;23.10;99.90;;;;;;5032291;28;20471;-71
2021/09/08 08:55:10;;;;;;;30.97;23.17;;;23.10;99.90;;;;;;5036491;28;20484;-71
2021/09/08 08:57:37;;;;;;;23.90;21.80;;;23.40;99.90;;;;;;5038832;28;20452;-72
2021/09/08 09:00:06;;;;;;;24.37;22.10;;;23.50;99.90;;;;;;5036404;28;20475;-71
2021/09/08 09:02:34;;;;;;;22.60;20.47;;;23.60;99.90;;;;;;5038688;28;20457;-71
2021/09/08 09:05:02;;;;;;;24.97;22.57;;;23.90;99.90;;;;;;5032911;28;20516;-70
2021/09/08 09:07:32;;;;;;;26.10;22.37;;;24.10;99.90;;;;;;5041616;28;20470;-72
2021/09/08 09:10:02;;;;;;;24.07;21.13;;;24.30;99.90;;;;;;5039371;28;20821;-72
2021/09/08 09:12:34;;;;;;;23.33;21.20;;;24.40;99.90;;;;;;5043888;28;20483;-71
2021/09/08 09:15:05;;;;;;;26.80;20.47;;;24.60;99.90;;;;;;5041725;28;20498;-72
2021/09/08 09:17:34;;;;;;;22.07;20.27;;;25.30;99.90;;;;;;5036651;28;20831;-71
2021/09/08 09:20:04;;;;;;;24.17;21.77;;;26.40;99.90;;;;;;5048158;28;20456;-70
2021/09/08 09:22:41;;;;;;;30.63;21.50;;;27.30;99.90;;;;;;5044366;28;20501;-71
2021/09/08 09:25:10;;;;;;;23.63;21.53;;;27.80;99.90;;;;;;5036682;28;21171;-69
2021/09/08 09:27:39;;;;;;;23.63;21.53;;;28.70;99.90;;;;;;5041481;28;20462;-71
2021/09/08 09:30:09;;;;;;;23.03;21.10;;;28.70;99.90;;;;;;5033789;28;21326;-73
2021/09/08 09:32:37;;;;;;;23.57;21.20;;;28.90;99.90;;;;;;5036269;28;21266;-71
2021/09/08 09:35:05;;;;;;;24.47;21.87;;;28.90;99.90;;;;;;5049698;28;20578;-72
2021/09/08 09:37:34;;;;;;;24.17;22.00;;;29.50;99.90;;;;;;5038452;28;20463;-71
2021/09/08 09:40:07;;;;;;;23.17;21.03;;;29.30;99.90;;;;;;5037228;28;20460;-71
2021/09/08 09:42:34;;;;;;;28.00;22.00;;;29.60;99.90;;;;;;5040446;28;20467;-71
2021/09/08 09:45:04;;;;;;;23.27;21.20;;;30.00;99.90;;;;;;5040005;28;20956;-74
2021/09/08 09:47:34;;;;;;;24.83;22.53;;;30.40;99.90;;;;;;5032855;28;20948;-72
2021/09/08 09:50:01;;;;;;;25.73;22.47;;;30.50;99.90;;;;;;5042164;28;20465;-74
2021/09/08 09:52:28;;;;;;;24.30;22.10;;;30.90;99.90;;;;;;5032748;28;20456;-71
2021/09/08 09:54:55;;;;;;;24.23;22.00;;;31.30;99.50;;;;;;5043850;28;20535;-74
2021/09/08 09:57:24;;;;;;;22.33;20.63;;;31.30;98.60;;;;;;5046583;28;20460;-72
2021/09/08 09:59:51;;;;;;;23.20;21.30;;;31.00;97.90;;;;;;5045251;28;20465;-73
2021/09/08 10:02:19;;;;;;;24.77;21.87;;;31.10;97.50;;;;;;5038167;28;20475;-72
2021/09/08 10:04:48;;;;;;;23.47;21.13;;;31.40;97.00;;;;;;5042112;28;21017;-72
2021/09/08 10:07:18;;;;;;;23.77;21.30;;;31.60;97.50;;;;;;5038494;28;20479;-72
2021/09/08 10:09:48;;;;;;;30.53;21.40;;;31.50;96.80;;;;;;5052920;28;20458;-72
2021/09/08 10:12:16;;;;;;;23.83;21.73;;;31.90;96.40;;;;;;5044645;28;20466;-72
2021/09/08 10:14:45;;;;;;;22.60;20.23;;;32.60;96.00;;;;;;5038726;28;20537;-71
2021/09/08 10:17:17;;;;;;;22.77;20.63;;;32.50;94.30;;;;;;5035326;28;20522;-73
2021/09/08 10:19:44;;;;;;;23.57;21.43;;;32.80;93.80;;;;;;5036181;28;20463;-72
2021/09/08 10:22:16;;;;;;;23.97;21.57;;;32.40;93.90;;;;;;5033658;28;20453;-71
2021/09/08 10:24:47;;;;;;;25.20;23.03;;;32.50;93.70;;;;;;5040429;28;21427;-73
2021/09/08 10:27:24;;;;;;;32.03;23.73;;;32.00;93.60;;;;;;5047508;28;20454;-71
2021/09/08 10:29:54;;;;;;;23.57;21.53;;;31.40;93.30;;;;;;5039316;28;20461;-72
2021/09/08 10:32:22;;;;;;;23.60;21.50;;;31.20;94.00;;;;;;5035018;28;20456;-71
2021/09/08 10:34:51;;;;;;;23.10;20.90;;;31.60;94.20;;;;;;5038607;28;20515;-71
2021/09/08 10:37:19;;;;;;;22.90;21.20;;;32.40;93.90;;;;;;5041720;28;21060;-70
2021/09/08 10:39:46;;;;;;;24.17;21.70;;;32.10;91.80;;;;;;5035429;28;20954;-73
2021/09/08 10:42:14;;;;;;;24.37;22.00;;;32.00;92.30;;;;;;5032768;28;20989;-70
2021/09/08 10:44:43;;;;;;;22.60;20.80;;;31.90;91.70;;;;;;5036734;28;20551;-71
2021/09/08 10:47:12;;;;;;;23.00;20.70;;;32.00;91.90;;;;;;5039818;28;20978;-71
2021/09/08 10:49:52;;;;;;;22.80;20.77;;;32.90;90.60;;;;;;5038953;28;20492;-71
2021/09/08 10:52:46;;;;;;;23.73;21.63;;;33.30;90.00;;;;;;5048943;28;20929;-71
2021/09/08 10:55:20;;;;;;;22.47;20.93;;;33.20;86.80;;;;;;5039336;28;20480;-71
2021/09/08 10:58:02;;;;;;;24.13;22.23;;;33.50;89.30;;;;;;5035541;28;20479;-70
2021/09/08 11:00:37;;;;;;;22.20;20.80;;;33.30;84.70;;;;;;5037708;28;20521;-71
2021/09/08 11:03:27;;;;;;;23.10;20.90;;;33.20;83.10;;;;;;5040207;28;20450;-72
2021/09/08 11:05:56;;;;;;;22.27;20.27;;;33.60;83.10;;;;;;5036597;28;20491;-71
2021/09/08 11:08:25;;;;;;;22.73;21.03;;;33.10;80.90;;;;;;5041596;28;20653;-70
2021/09/08 11:11:05;;;;;;;23.37;21.47;;;32.90;81.80;;;;;;5038456;28;20466;-75
2021/09/08 11:13:33;;;;;;;22.87;20.93;;;33.40;80.60;;;;;;5032011;28;21202;-70
2021/09/08 11:16:00;;;;;;;22.70;20.77;;;33.40;81.00;;;;;;5050168;28;20487;-70
2021/09/08 11:18:36;;;;;;;23.23;21.17;;;34.10;80.60;;;;;;5033993;28;20460;-71
2021/09/08 11:21:04;;;;;;;24.40;22.37;;;34.40;77.90;;;;;;5033472;28;20460;-71
2021/09/08 11:23:32;;;;;;;27.07;22.20;;;35.10;74.10;;;;;;5046645;28;21068;-71
2021/09/08 11:26:07;;;;;;;22.03;20.33;;;35.20;72.60;;;;;;5035283;28;20459;-72
2021/09/08 11:28:35;;;;;;;21.80;19.80;;;35.30;72.40;;;;;;5034404;28;20460;-73
2021/09/08 11:31:12;;;;;;;24.17;22.33;;;34.80;73.30;;;;;;5036811;28;20464;-72
2021/09/08 11:33:40;;;;;;;22.03;19.83;;;35.30;73.30;;;;;;5035984;28;20486;-71
2021/09/08 11:36:16;;;;;;;22.17;20.33;;;35.50;70.80;;;;;;5034534;28;20485;-72
2021/09/08 11:38:46;;;;;;;23.00;20.90;;;35.80;69.50;;;;;;5035155;28;20456;-70
2021/09/08 11:41:14;;;;;;;22.27;20.67;;;36.30;68.00;;;;;;5029659;28;20518;-72
2021/09/08 11:43:42;;;;;;;28.07;21.57;;;35.70;63.70;;;;;;5036899;28;20459;-70
2021/09/08 11:46:12;;;;;;;27.27;20.53;;;35.40;64.80;;;;;;5042516;28;20458;-71
2021/09/08 11:48:41;;;;;;;23.07;20.70;;;35.30;64.40;;;;;;5037569;28;20451;-73
2021/09/08 11:51:10;;;;;;;22.60;20.53;;;35.10;61.70;;;;;;5035020;28;20459;-71
2021/09/08 11:53:38;;;;;;;23.53;20.80;;;35.00;62.50;;;;;;5039554;28;20478;-71
2021/09/08 11:56:07;;;;;;;21.50;19.77;;;35.40;63.50;;;;;;5037311;28;20484;-71
2021/09/08 11:58:34;;;;;;;22.17;20.13;;;35.70;63.80;;;;;;5036812;28;20517;-71
2021/09/08 12:01:06;;;;;;;21.50;19.60;;;35.40;60.60;;;;;;5034715;28;20459;-71
2021/09/08 12:03:37;;;;;;;32.13;20.87;;;35.10;59.90;;;;;;5041299;28;20550;-71
2021/09/08 12:06:13;;;;;;;22.33;20.63;;;35.20;60.60;;;;;;5034618;28;20549;-70
2021/09/08 12:08:51;;;;;;;22.10;20.13;;;35.40;60.00;;;;;;5038128;28;20494;-71
2021/09/08 12:11:36;;;;;;;23.83;19.63;;;35.80;59.70;;;;;;5034555;28;20452;-71
2021/09/08 12:14:18;;;;;;;22.40;20.13;;;35.90;59.40;;;;;;5033296;28;20455;-71
2021/09/08 12:16:46;;;;;;;24.83;20.20;;;35.20;59.40;;;;;;5033897;28;20497;-72
2021/09/08 12:19:14;;;;;;;21.97;20.40;;;34.80;59.40;;;;;;5037225;28;20460;-70
2021/09/08 12:21:43;;;;;;;21.03;19.33;;;35.60;59.20;;;;;;5037142;28;20510;-71
2021/09/08 12:24:24;;;;;;;21.50;19.80;;;35.70;57.60;;;;;;5034053;28;20480;-70
2021/09/08 12:26:51;;;;;;;22.50;20.40;;;35.90;58.60;;;;;;5036601;28;20486;-71
2021/09/08 12:29:19;;;;;;;32.37;20.90;;;36.40;58.30;;;;;;5033689;28;20454;-71
2021/09/08 12:31:52;;;;;;;30.63;18.70;;;36.50;56.50;;;;;;5036059;28;20464;-70
2021/09/08 12:34:19;;;;;;;20.73;18.53;;;36.30;56.60;;;;;;5037361;28;20599;-70